sensor_id;sensor_type;location;lat;lon;timestamp;temperature;humidity
14709;DHT22;7445;50.774;4.944;2023-08-01T20:15:10;18.30;1.00
14709;DHT22;7445;50.774;4.944;2023-08-01T20:18:04;18.20;99.90
14709;DHT22;7445;50.774;4.944;2023-08-01T20:20:50;18.20;1.00
14709;DHT22;7445;50.774;4.944;2023-08-01T20:23:16;18.20;1.00
14709;DHT22;7445;50.774;4.944;2023-08-01T20:25:45;18.10;1.00
14709;DHT22;7445;50.774;4.944;2023-08-01T20:28:14;18.10;1.00
14709;DHT22;7445;50.774;4.944;2023-08-01T20:30:45;18.00;1.00
14709;DHT22;7445;50.774;4.944;2023-08-01T20:33:11;17.90;1.00
14709;DHT22;7445;50.774;4.944;2023-08-01T20:35:38;17.90;1.00
14709;DHT22;7445;50.774;4.944;2023-08-01T20:38:07;17.90;1.00
14709;DHT22;7445;50.774;4.944;2023-08-01T20:40:34;17.90;1.00
14709;DHT22;7445;50.774;4.944;2023-08-01T20:43:00;17.80;1.00
14709;DHT22;7445;50.774;4.944;2023-08-01T20:45:26;17.90;1.00
14709;DHT22;7445;50.774;4.944;2023-08-01T20:47:52;17.90;1.00
14709;DHT22;7445;50.774;4.944;2023-08-01T20:50:17;17.80;1.00
14709;DHT22;7445;50.774;4.944;2023-08-01T20:52:43;17.70;1.00
14709;DHT22;7445;50.774;4.944;2023-08-01T20:55:09;17.60;1.00
14709;DHT22;7445;50.774;4.944;2023-08-01T20:57:35;17.50;1.00
14709;DHT22;7445;50.774;4.944;2023-08-01T21:00:01;17.50;1.00
14709;DHT22;7445;50.774;4.944;2023-08-01T21:02:27;17.40;1.00
14709;DHT22;7445;50.774;4.944;2023-08-01T21:04:52;17.40;1.00
14709;DHT22;7445;50.774;4.944;2023-08-01T21:07:23;17.30;1.00
14709;DHT22;7445;50.774;4.944;2023-08-01T21:09:49;17.20;1.00
14709;DHT22;7445;50.774;4.944;2023-08-01T21:12:15;17.20;1.00
14709;DHT22;7445;50.774;4.944;2023-08-01T21:14:41;17.10;1.00
14709;DHT22;7445;50.774;4.944;2023-08-01T21:17:10;17.00;1.00
14709;DHT22;7445;50.774;4.944;2023-08-01T21:19:58;17.00;1.00
14709;DHT22;7445;50.774;4.944;2023-08-01T21:22:24;17.00;1.00
14709;DHT22;7445;50.774;4.944;2023-08-01T21:24:54;16.90;1.00
14709;DHT22;7445;50.774;4.944;2023-08-01T21:27:20;16.90;1.00
14709;DHT22;7445;50.774;4.944;2023-08-01T21:29:45;16.90;1.00
14709;DHT22;7445;50.774;4.944;2023-08-01T21:32:11;16.80;1.00
14709;DHT22;7445;50.774;4.944;2023-08-01T21:34:38;16.80;1.00
14709;DHT22;7445;50.774;4.944;2023-08-01T21:37:04;16.70;1.00
14709;DHT22;7445;50.774;4.944;2023-08-01T21:39:36;16.70;1.00
14709;DHT22;7445;50.774;4.944;2023-08-01T21:42:14;16.70;1.00
14709;DHT22;7445;50.774;4.944;2023-08-01T21:44:41;16.60;1.00
14709;DHT22;7445;50.774;4.944;2023-08-01T21:47:32;16.70;1.00
14709;DHT22;7445;50.774;4.944;2023-08-01T21:49:57;16.70;1.00
14709;DHT22;7445;50.774;4.944;2023-08-01T21:52:25;16.60;1.00
14709;DHT22;7445;50.774;4.944;2023-08-01T21:54:50;16.70;1.00
14709;DHT22;7445;50.774;4.944;2023-08-01T21:57:16;16.70;2.80
14709;DHT22;7445;50.774;4.944;2023-08-01T21:59:48;16.80;1.00
14709;DHT22;7445;50.774;4.944;2023-08-01T22:02:14;16.80;1.00
14709;DHT22;7445;50.774;4.944;2023-08-01T22:04:40;16.80;1.00
14709;DHT22;7445;50.774;4.944;2023-08-01T22:07:05;16.80;1.00
14709;DHT22;7445;50.774;4.944;2023-08-01T22:09:31;16.80;1.00
14709;DHT22;7445;50.774;4.944;2023-08-01T22:11:59;16.90;1.00
14709;DHT22;7445;50.774;4.944;2023-08-01T22:14:26;16.90;1.00
14709;DHT22;7445;50.774;4.944;2023-08-01T22:16:52;16.90;1.00
14709;DHT22;7445;50.774;4.944;2023-08-01T22:19:25;16.90;1.00
14709;DHT22;7445;50.774;4.944;2023-08-01T22:21:51;16.90;1.00
14709;DHT22;7445;50.774;4.944;2023-08-01T22:24:16;16.90;7.00
14709;DHT22;7445;50.774;4.944;2023-08-01T22:26:42;16.80;1.00
14709;DHT22;7445;50.774;4.944;2023-08-01T22:29:10;16.80;1.00
14709;DHT22;7445;50.774;4.944;2023-08-01T22:31:35;16.80;7.80
14709;DHT22;7445;50.774;4.944;2023-08-01T22:34:01;16.80;10.50
14709;DHT22;7445;50.774;4.944;2023-08-01T22:36:27;16.70;1.00
14709;DHT22;7445;50.774;4.944;2023-08-01T22:38:52;16.70;6.20
14709;DHT22;7445;50.774;4.944;2023-08-01T22:41:18;16.60;6.80
14709;DHT22;7445;50.774;4.944;2023-08-01T22:43:45;16.60;1.00
14709;DHT22;7445;50.774;4.944;2023-08-01T22:46:11;16.60;12.40
14709;DHT22;7445;50.774;4.944;2023-08-01T22:48:38;16.50;2.80
14709;DHT22;7445;50.774;4.944;2023-08-01T22:51:12;16.50;3.00
14709;DHT22;7445;50.774;4.944;2023-08-01T22:53:40;16.50;11.00
14709;DHT22;7445;50.774;4.944;2023-08-01T22:56:11;16.40;3.90
14709;DHT22;7445;50.774;4.944;2023-08-01T22:58:36;16.40;28.00
14709;DHT22;7445;50.774;4.944;2023-08-01T23:01:02;16.40;16.40
14709;DHT22;7445;50.774;4.944;2023-08-01T23:03:28;16.40;3.20
14709;DHT22;7445;50.774;4.944;2023-08-01T23:05:53;16.40;44.20
14709;DHT22;7445;50.774;4.944;2023-08-01T23:08:19;16.30;37.60
14709;DHT22;7445;50.774;4.944;2023-08-01T23:10:45;16.30;13.80
14709;DHT22;7445;50.774;4.944;2023-08-01T23:13:11;16.30;18.00
14709;DHT22;7445;50.774;4.944;2023-08-01T23:15:37;16.30;27.80
14709;DHT22;7445;50.774;4.944;2023-08-01T23:18:03;16.30;17.60
14709;DHT22;7445;50.774;4.944;2023-08-01T23:20:30;16.30;22.60
14709;DHT22;7445;50.774;4.944;2023-08-01T23:22:56;16.20;36.40
14709;DHT22;7445;50.774;4.944;2023-08-01T23:25:21;16.20;31.40
14709;DHT22;7445;50.774;4.944;2023-08-01T23:27:47;16.20;33.50
14709;DHT22;7445;50.774;4.944;2023-08-01T23:30:13;16.20;32.10
14709;DHT22;7445;50.774;4.944;2023-08-01T23:32:38;16.20;32.40
14709;DHT22;7445;50.774;4.944;2023-08-01T23:35:04;16.30;36.90
14709;DHT22;7445;50.774;4.944;2023-08-01T23:37:30;16.20;26.10
14709;DHT22;7445;50.774;4.944;2023-08-01T23:39:55;16.30;48.50
14709;DHT22;7445;50.774;4.944;2023-08-01T23:42:21;16.30;54.30
14709;DHT22;7445;50.774;4.944;2023-08-01T23:44:49;16.30;58.40
14709;DHT22;7445;50.774;4.944;2023-08-01T23:47:14;16.40;58.20
14709;DHT22;7445;50.774;4.944;2023-08-01T23:49:43;16.40;44.20
14709;DHT22;7445;50.774;4.944;2023-08-01T23:52:09;16.50;23.90
14709;DHT22;7445;50.774;4.944;2023-08-01T23:54:35;16.50;24.90
14709;DHT22;7445;50.774;4.944;2023-08-01T23:57:00;16.50;19.10
14709;DHT22;7445;50.774;4.944;2023-08-01T23:59:28;16.60;28.40
